Port Hardy, Canada
Current Conditions -  °F | °C
As of 8:00 AM on Thursday 23 Oct 2014 (Local Time) from CYZT Reporting Station
Broken Clouds Broken Clouds  
Wind Chill: 41°   Ceiling: 23000
Heat Index: 41°   Visibility: 20mi
Dew Point: 41°   Wind: 3mph
Humidity: 100%   Direction: 250°WSW
Pressure: 29.63"   Gusts: NA
Location:  50.72°N, 127.5°W
Report Text: CYZT 231500Z 25003KT 20SM FEW050 BKN230 05/05 A2963 RMK SC1CI6 SLP036
Loading
Personal Weather Stations






























Interactive Weather Map
Tropical Storm Tracking
New forecast layout! Learn more

10-Day Weather Forecast

Advertisements
Track Severe Weather on mobile